sensor_id;sensor_type;location;lat;lon;timestamp;temperature;humidity
19536;HTU21D;9913;51.168;4.124;2022-08-18T00:01:13;16.81;97.39
19536;HTU21D;9913;51.168;4.124;2022-08-18T00:03:45;16.84;97.60
19536;HTU21D;9913;51.168;4.124;2022-08-18T00:06:26;16.80;97.64
19536;HTU21D;9913;51.168;4.124;2022-08-18T00:08:58;16.87;97.90
19536;HTU21D;9913;51.168;4.124;2022-08-18T00:11:32;16.90;97.84
19536;HTU21D;9913;51.168;4.124;2022-08-18T00:14:10;16.92;97.60
19536;HTU21D;9913;51.168;4.124;2022-08-18T00:16:52;16.84;97.43
19536;HTU21D;9913;51.168;4.124;2022-08-18T00:19:23;16.96;97.71
19536;HTU21D;9913;51.168;4.124;2022-08-18T00:22:14;16.99;97.36
19536;HTU21D;9913;51.168;4.124;2022-08-18T00:24:46;16.82;96.81
19536;HTU21D;9913;51.168;4.124;2022-08-18T00:27:19;16.67;97.06
19536;HTU21D;9913;51.168;4.124;2022-08-18T00:29:51;16.71;97.47
19536;HTU21D;9913;51.168;4.124;2022-08-18T00:32:22;16.80;97.58
19536;HTU21D;9913;51.168;4.124;2022-08-18T00:34:52;16.77;97.50
19536;HTU21D;9913;51.168;4.124;2022-08-18T00:37:23;16.87;97.60
19536;HTU21D;9913;51.168;4.124;2022-08-18T00:39:53;16.99;97.40
19536;HTU21D;9913;51.168;4.124;2022-08-18T00:42:25;16.87;96.50
19536;HTU21D;9913;51.168;4.124;2022-08-18T00:44:59;16.81;96.54
19536;HTU21D;9913;51.168;4.124;2022-08-18T00:47:29;16.70;96.48
19536;HTU21D;9913;51.168;4.124;2022-08-18T00:50:12;16.71;96.65
19536;HTU21D;9913;51.168;4.124;2022-08-18T00:52:50;16.76;96.78
19536;HTU21D;9913;51.168;4.124;2022-08-18T00:55:22;16.91;96.82
19536;HTU21D;9913;51.168;4.124;2022-08-18T00:57:59;16.85;96.42
19536;HTU21D;9913;51.168;4.124;2022-08-18T01:00:32;16.75;96.66
19536;HTU21D;9913;51.168;4.124;2022-08-18T01:03:04;16.74;97.00
19536;HTU21D;9913;51.168;4.124;2022-08-18T01:05:35;16.85;97.05
19536;HTU21D;9913;51.168;4.124;2022-08-18T01:08:08;16.85;97.02
19536;HTU21D;9913;51.168;4.124;2022-08-18T01:10:42;16.86;96.96
19536;HTU21D;9913;51.168;4.124;2022-08-18T01:13:11;16.89;97.16
19536;HTU21D;9913;51.168;4.124;2022-08-18T01:15:39;17.02;97.18
19536;HTU21D;9913;51.168;4.124;2022-08-18T01:18:09;17.09;96.80
19536;HTU21D;9913;51.168;4.124;2022-08-18T01:21:01;17.07;96.62
19536;HTU21D;9913;51.168;4.124;2022-08-18T01:23:53;17.04;96.71
19536;HTU21D;9913;51.168;4.124;2022-08-18T01:26:25;17.04;96.93
19536;HTU21D;9913;51.168;4.124;2022-08-18T01:28:59;17.04;96.77
19536;HTU21D;9913;51.168;4.124;2022-08-18T01:31:47;16.95;96.77
19536;HTU21D;9913;51.168;4.124;2022-08-18T01:34:24;17.02;96.75
19536;HTU21D;9913;51.168;4.124;2022-08-18T01:36:56;17.00;96.33
19536;HTU21D;9913;51.168;4.124;2022-08-18T01:39:27;16.87;96.34
19536;HTU21D;9913;51.168;4.124;2022-08-18T01:42:16;16.81;96.59
19536;HTU21D;9913;51.168;4.124;2022-08-18T01:44:47;16.75;96.78
19536;HTU21D;9913;51.168;4.124;2022-08-18T01:47:17;16.76;96.97
19536;HTU21D;9913;51.168;4.124;2022-08-18T01:49:53;16.81;97.00
19536;HTU21D;9913;51.168;4.124;2022-08-18T01:52:22;16.72;97.03
19536;HTU21D;9913;51.168;4.124;2022-08-18T01:54:55;16.62;96.91
19536;HTU21D;9913;51.168;4.124;2022-08-18T01:57:28;16.62;97.07
19536;HTU21D;9913;51.168;4.124;2022-08-18T01:59:58;16.63;97.09
19536;HTU21D;9913;51.168;4.124;2022-08-18T02:02:29;16.59;97.16
19536;HTU21D;9913;51.168;4.124;2022-08-18T02:05:07;16.55;97.36
19536;HTU21D;9913;51.168;4.124;2022-08-18T02:07:37;16.47;97.31
19536;HTU21D;9913;51.168;4.124;2022-08-18T02:10:13;16.49;97.34
19536;HTU21D;9913;51.168;4.124;2022-08-18T02:12:47;16.47;97.42
19536;HTU21D;9913;51.168;4.124;2022-08-18T02:15:16;16.44;97.47
19536;HTU21D;9913;51.168;4.124;2022-08-18T02:17:45;16.45;97.65
19536;HTU21D;9913;51.168;4.124;2022-08-18T02:20:16;16.45;97.63
19536;HTU21D;9913;51.168;4.124;2022-08-18T02:22:46;16.49;97.61
19536;HTU21D;9913;51.168;4.124;2022-08-18T02:25:18;16.47;97.45
19536;HTU21D;9913;51.168;4.124;2022-08-18T02:27:47;16.41;97.27
19536;HTU21D;9913;51.168;4.124;2022-08-18T02:30:24;16.33;96.99
19536;HTU21D;9913;51.168;4.124;2022-08-18T02:32:56;16.33;97.21
19536;HTU21D;9913;51.168;4.124;2022-08-18T02:35:25;16.35;97.26
19536;HTU21D;9913;51.168;4.124;2022-08-18T02:37:58;16.27;97.20
19536;HTU21D;9913;51.168;4.124;2022-08-18T02:40:34;16.31;97.41
19536;HTU21D;9913;51.168;4.124;2022-08-18T02:43:05;16.22;97.26
19536;HTU21D;9913;51.168;4.124;2022-08-18T02:45:36;16.14;97.40
19536;HTU21D;9913;51.168;4.124;2022-08-18T02:48:07;16.10;97.58
19536;HTU21D;9913;51.168;4.124;2022-08-18T02:50:36;16.19;97.69
19536;HTU21D;9913;51.168;4.124;2022-08-18T02:53:12;16.18;97.71
19536;HTU21D;9913;51.168;4.124;2022-08-18T02:55:49;16.26;97.90
19536;HTU21D;9913;51.168;4.124;2022-08-18T02:58:18;16.30;97.71
19536;HTU21D;9913;51.168;4.124;2022-08-18T03:00:48;16.27;97.53
19536;HTU21D;9913;51.168;4.124;2022-08-18T03:03:18;16.15;97.56
19536;HTU21D;9913;51.168;4.124;2022-08-18T03:05:47;16.12;97.85
19536;HTU21D;9913;51.168;4.124;2022-08-18T03:08:15;16.12;98.06
19536;HTU21D;9913;51.168;4.124;2022-08-18T03:10:43;16.08;97.79
19536;HTU21D;9913;51.168;4.124;2022-08-18T03:13:13;16.13;97.91
19536;HTU21D;9913;51.168;4.124;2022-08-18T03:15:41;16.18;97.68
19536;HTU21D;9913;51.168;4.124;2022-08-18T03:18:10;16.22;97.33
19536;HTU21D;9913;51.168;4.124;2022-08-18T03:20:39;16.21;97.03
19536;HTU21D;9913;51.168;4.124;2022-08-18T03:23:12;16.13;97.12
19536;HTU21D;9913;51.168;4.124;2022-08-18T03:25:45;16.13;97.30
19536;HTU21D;9913;51.168;4.124;2022-08-18T03:28:16;16.08;97.35
19536;HTU21D;9913;51.168;4.124;2022-08-18T03:30:45;16.10;97.34
19536;HTU21D;9913;51.168;4.124;2022-08-18T03:33:13;16.06;97.29
19536;HTU21D;9913;51.168;4.124;2022-08-18T03:35:42;15.92;97.18
19536;HTU21D;9913;51.168;4.124;2022-08-18T03:38:13;15.93;97.52
19536;HTU21D;9913;51.168;4.124;2022-08-18T03:40:42;15.90;97.58
19536;HTU21D;9913;51.168;4.124;2022-08-18T03:43:11;15.89;97.91
19536;HTU21D;9913;51.168;4.124;2022-08-18T03:46:02;15.91;98.48
19536;HTU21D;9913;51.168;4.124;2022-08-18T03:48:33;15.92;98.71
19536;HTU21D;9913;51.168;4.124;2022-08-18T03:51:05;15.93;98.70
19536;HTU21D;9913;51.168;4.124;2022-08-18T03:53:34;15.97;98.66
19536;HTU21D;9913;51.168;4.124;2022-08-18T03:56:06;16.11;98.70
19536;HTU21D;9913;51.168;4.124;2022-08-18T03:58:48;16.12;98.08
19536;HTU21D;9913;51.168;4.124;2022-08-18T04:01:25;15.98;97.81
19536;HTU21D;9913;51.168;4.124;2022-08-18T04:03:56;15.91;98.23
19536;HTU21D;9913;51.168;4.124;2022-08-18T04:06:31;15.97;98.49
19536;HTU21D;9913;51.168;4.124;2022-08-18T04:09:02;16.03;98.52
19536;HTU21D;9913;51.168;4.124;2022-08-18T04:11:36;15.86;98.06
19536;HTU21D;9913;51.168;4.124;2022-08-18T04:14:05;15.88;98.00
19536;HTU21D;9913;51.168;4.124;2022-08-18T04:16:36;15.86;98.02
19536;HTU21D;9913;51.168;4.124;2022-08-18T04:19:10;15.80;98.02
19536;HTU21D;9913;51.168;4.124;2022-08-18T04:21:40;15.82;97.97
19536;HTU21D;9913;51.168;4.124;2022-08-18T04:24:11;15.77;97.69
19536;HTU21D;9913;51.168;4.124;2022-08-18T04:26:42;15.77;97.52
19536;HTU21D;9913;51.168;4.124;2022-08-18T04:29:12;15.71;97.71
19536;HTU21D;9913;51.168;4.124;2022-08-18T04:31:43;15.65;97.58
19536;HTU21D;9913;51.168;4.124;2022-08-18T04:34:12;15.58;97.53
19536;HTU21D;9913;51.168;4.124;2022-08-18T04:36:44;15.58;97.59
19536;HTU21D;9913;51.168;4.124;2022-08-18T04:39:13;15.51;97.79
19536;HTU21D;9913;51.168;4.124;2022-08-18T04:41:42;15.54;98.04
19536;HTU21D;9913;51.168;4.124;2022-08-18T04:44:11;15.55;97.72
19536;HTU21D;9913;51.168;4.124;2022-08-18T04:46:47;15.69;97.67
19536;HTU21D;9913;51.168;4.124;2022-08-18T04:49:17;15.62;97.33
19536;HTU21D;9913;51.168;4.124;2022-08-18T04:51:49;15.67;97.30
19536;HTU21D;9913;51.168;4.124;2022-08-18T04:54:54;15.74;97.23
19536;HTU21D;9913;51.168;4.124;2022-08-18T04:57:22;15.84;96.88
19536;HTU21D;9913;51.168;4.124;2022-08-18T04:59:51;16.01;96.42
19536;HTU21D;9913;51.168;4.124;2022-08-18T05:02:25;15.91;96.40
19536;HTU21D;9913;51.168;4.124;2022-08-18T05:04:56;15.86;96.49
19536;HTU21D;9913;51.168;4.124;2022-08-18T05:07:25;15.95;96.58
19536;HTU21D;9913;51.168;4.124;2022-08-18T05:09:57;15.99;96.58
19536;HTU21D;9913;51.168;4.124;2022-08-18T05:12:25;16.03;96.43
19536;HTU21D;9913;51.168;4.124;2022-08-18T05:14:57;16.02;96.36
19536;HTU21D;9913;51.168;4.124;2022-08-18T05:17:30;15.96;96.54
19536;HTU21D;9913;51.168;4.124;2022-08-18T05:19:58;16.12;96.62
19536;HTU21D;9913;51.168;4.124;2022-08-18T05:22:36;16.10;96.42
19536;HTU21D;9913;51.168;4.124;2022-08-18T05:25:06;16.11;96.42
19536;HTU21D;9913;51.168;4.124;2022-08-18T05:27:37;16.13;96.65
19536;HTU21D;9913;51.168;4.124;2022-08-18T05:30:12;16.20;96.66
19536;HTU21D;9913;51.168;4.124;2022-08-18T05:32:45;16.34;96.10
19536;HTU21D;9913;51.168;4.124;2022-08-18T05:35:20;16.26;96.16
19536;HTU21D;9913;51.168;4.124;2022-08-18T05:38:07;16.26;96.62
19536;HTU21D;9913;51.168;4.124;2022-08-18T05:40:40;16.26;96.62
19536;HTU21D;9913;51.168;4.124;2022-08-18T05:43:09;16.31;96.90
19536;HTU21D;9913;51.168;4.124;2022-08-18T05:45:39;16.36;96.93
19536;HTU21D;9913;51.168;4.124;2022-08-18T05:48:09;16.39;96.80
19536;HTU21D;9913;51.168;4.124;2022-08-18T05:50:37;16.46;96.83
19536;HTU21D;9913;51.168;4.124;2022-08-18T05:53:13;16.57;96.60
19536;HTU21D;9913;51.168;4.124;2022-08-18T05:55:54;16.60;96.65
19536;HTU21D;9913;51.168;4.124;2022-08-18T05:58:45;16.59;96.68
19536;HTU21D;9913;51.168;4.124;2022-08-18T06:01:22;16.69;96.92
19536;HTU21D;9913;51.168;4.124;2022-08-18T06:04:05;16.75;97.07
19536;HTU21D;9913;51.168;4.124;2022-08-18T06:06:36;16.65;96.91
19536;HTU21D;9913;51.168;4.124;2022-08-18T06:09:14;16.66;97.02
19536;HTU21D;9913;51.168;4.124;2022-08-18T06:11:47;16.79;97.46
19536;HTU21D;9913;51.168;4.124;2022-08-18T06:14:16;16.77;97.14
19536;HTU21D;9913;51.168;4.124;2022-08-18T06:17:12;17.01;97.69
19536;HTU21D;9913;51.168;4.124;2022-08-18T06:19:49;17.08;97.61
19536;HTU21D;9913;51.168;4.124;2022-08-18T06:22:29;17.20;97.33
19536;HTU21D;9913;51.168;4.124;2022-08-18T06:25:24;17.37;96.47
19536;HTU21D;9913;51.168;4.124;2022-08-18T06:28:00;17.34;96.43
19536;HTU21D;9913;51.168;4.124;2022-08-18T06:30:41;17.41;97.52
19536;HTU21D;9913;51.168;4.124;2022-08-18T06:33:23;17.50;97.21
19536;HTU21D;9913;51.168;4.124;2022-08-18T06:36:00;17.60;96.64
19536;HTU21D;9913;51.168;4.124;2022-08-18T06:38:51;17.63;96.66
19536;HTU21D;9913;51.168;4.124;2022-08-18T06:41:33;17.82;96.94
19536;HTU21D;9913;51.168;4.124;2022-08-18T06:44:11;17.95;95.91
19536;HTU21D;9913;51.168;4.124;2022-08-18T06:46:44;18.08;95.52
19536;HTU21D;9913;51.168;4.124;2022-08-18T06:49:17;18.26;95.73
19536;HTU21D;9913;51.168;4.124;2022-08-18T06:51:50;18.46;94.99
19536;HTU21D;9913;51.168;4.124;2022-08-18T06:54:28;18.52;94.13
19536;HTU21D;9913;51.168;4.124;2022-08-18T06:56:57;18.62;94.04
19536;HTU21D;9913;51.168;4.124;2022-08-18T06:59:30;18.70;93.88
19536;HTU21D;9913;51.168;4.124;2022-08-18T07:02:03;18.71;93.67
19536;HTU21D;9913;51.168;4.124;2022-08-18T07:05:01;18.82;93.88
19536;HTU21D;9913;51.168;4.124;2022-08-18T07:07:35;18.96;93.85
19536;HTU21D;9913;51.168;4.124;2022-08-18T07:10:29;18.95;93.59
19536;HTU21D;9913;51.168;4.124;2022-08-18T07:13:18;19.01;93.70
19536;HTU21D;9913;51.168;4.124;2022-08-18T07:15:47;19.11;93.91
19536;HTU21D;9913;51.168;4.124;2022-08-18T07:18:21;19.14;93.59
19536;HTU21D;9913;51.168;4.124;2022-08-18T07:20:57;19.44;93.12
19536;HTU21D;9913;51.168;4.124;2022-08-18T07:23:31;19.50;92.95
19536;HTU21D;9913;51.168;4.124;2022-08-18T07:26:04;19.48;93.03
19536;HTU21D;9913;51.168;4.124;2022-08-18T07:28:38;19.41;92.70
19536;HTU21D;9913;51.168;4.124;2022-08-18T07:31:14;19.63;93.08
19536;HTU21D;9913;51.168;4.124;2022-08-18T07:33:48;19.77;93.43
19536;HTU21D;9913;51.168;4.124;2022-08-18T07:36:19;19.83;92.58
19536;HTU21D;9913;51.168;4.124;2022-08-18T07:39:02;20.13;92.18
19536;HTU21D;9913;51.168;4.124;2022-08-18T07:41:37;20.10;92.22
19536;HTU21D;9913;51.168;4.124;2022-08-18T07:44:14;19.90;92.58
19536;HTU21D;9913;51.168;4.124;2022-08-18T07:46:52;20.10;92.26
19536;HTU21D;9913;51.168;4.124;2022-08-18T07:49:24;20.20;92.30
19536;HTU21D;9913;51.168;4.124;2022-08-18T07:51:56;20.15;91.95
19536;HTU21D;9913;51.168;4.124;2022-08-18T07:54:39;20.18;91.61
19536;HTU21D;9913;51.168;4.124;2022-08-18T07:57:22;20.33;91.72
19536;HTU21D;9913;51.168;4.124;2022-08-18T08:00:18;20.44;90.91
19536;HTU21D;9913;51.168;4.124;2022-08-18T08:03:22;20.43;90.79
19536;HTU21D;9913;51.168;4.124;2022-08-18T08:05:56;20.81;90.71
19536;HTU21D;9913;51.168;4.124;2022-08-18T08:08:33;21.09;90.10
19536;HTU21D;9913;51.168;4.124;2022-08-18T08:11:12;21.11;89.35
19536;HTU21D;9913;51.168;4.124;2022-08-18T08:13:54;20.87;90.08
19536;HTU21D;9913;51.168;4.124;2022-08-18T08:16:35;20.70;89.96
19536;HTU21D;9913;51.168;4.124;2022-08-18T08:19:20;20.65;89.93
19536;HTU21D;9913;51.168;4.124;2022-08-18T08:22:17;20.96;89.56
19536;HTU21D;9913;51.168;4.124;2022-08-18T08:24:52;21.40;87.80
19536;HTU21D;9913;51.168;4.124;2022-08-18T08:27:35;21.76;85.93
19536;HTU21D;9913;51.168;4.124;2022-08-18T08:30:07;22.41;84.35
19536;HTU21D;9913;51.168;4.124;2022-08-18T08:32:48;22.58;84.50
19536;HTU21D;9913;51.168;4.124;2022-08-18T08:35:32;22.68;82.78
19536;HTU21D;9913;51.168;4.124;2022-08-18T08:38:20;22.60;83.36
19536;HTU21D;9913;51.168;4.124;2022-08-18T08:41:18;22.10;83.32
19536;HTU21D;9913;51.168;4.124;2022-08-18T08:43:56;21.50;84.79
19536;HTU21D;9913;51.168;4.124;2022-08-18T08:46:31;21.07;85.26
19536;HTU21D;9913;51.168;4.124;2022-08-18T08:49:08;20.95;87.62
19536;HTU21D;9913;51.168;4.124;2022-08-18T08:51:48;20.86;87.86
19536;HTU21D;9913;51.168;4.124;2022-08-18T08:54:20;20.89;88.23
19536;HTU21D;9913;51.168;4.124;2022-08-18T08:56:52;20.77;89.36
19536;HTU21D;9913;51.168;4.124;2022-08-18T08:59:24;21.21;88.60
19536;HTU21D;9913;51.168;4.124;2022-08-18T09:02:08;21.82;86.07
19536;HTU21D;9913;51.168;4.124;2022-08-18T09:05:07;21.97;83.90
19536;HTU21D;9913;51.168;4.124;2022-08-18T09:07:48;22.24;81.42
19536;HTU21D;9913;51.168;4.124;2022-08-18T09:10:33;22.33;80.88
19536;HTU21D;9913;51.168;4.124;2022-08-18T09:13:32;22.88;79.72
19536;HTU21D;9913;51.168;4.124;2022-08-18T09:16:16;22.58;79.78
19536;HTU21D;9913;51.168;4.124;2022-08-18T09:19:02;22.53;80.38
19536;HTU21D;9913;51.168;4.124;2022-08-18T09:21:42;22.21;82.18
19536;HTU21D;9913;51.168;4.124;2022-08-18T09:24:21;22.23;82.17
19536;HTU21D;9913;51.168;4.124;2022-08-18T09:27:10;22.22;82.22
19536;HTU21D;9913;51.168;4.124;2022-08-18T09:29:50;22.54;82.75
19536;HTU21D;9913;51.168;4.124;2022-08-18T09:36:01;23.69;80.72
19536;HTU21D;9913;51.168;4.124;2022-08-18T09:38:47;24.13;78.05
19536;HTU21D;9913;51.168;4.124;2022-08-18T09:41:38;24.15;79.88
19536;HTU21D;9913;51.168;4.124;2022-08-18T09:47:59;24.70;77.94
19536;HTU21D;9913;51.168;4.124;2022-08-18T09:50:38;24.62;75.44
19536;HTU21D;9913;51.168;4.124;2022-08-18T09:53:55;24.00;77.06
19536;HTU21D;9913;51.168;4.124;2022-08-18T09:57:06;23.65;78.46
19536;HTU21D;9913;51.168;4.124;2022-08-18T10:03:11;23.37;78.32
19536;HTU21D;9913;51.168;4.124;2022-08-18T10:05:59;23.17;78.15
19536;HTU21D;9913;51.168;4.124;2022-08-18T10:08:49;23.38;77.62
19536;HTU21D;9913;51.168;4.124;2022-08-18T10:11:39;23.20;78.15
19536;HTU21D;9913;51.168;4.124;2022-08-18T10:14:28;23.18;77.53
19536;HTU21D;9913;51.168;4.124;2022-08-18T10:17:06;23.09;77.89
19536;HTU21D;9913;51.168;4.124;2022-08-18T10:19:58;23.05;78.79
19536;HTU21D;9913;51.168;4.124;2022-08-18T10:22:37;22.99;79.01
19536;HTU21D;9913;51.168;4.124;2022-08-18T10:25:08;23.00;79.09
19536;HTU21D;9913;51.168;4.124;2022-08-18T10:27:52;22.92;79.37
19536;HTU21D;9913;51.168;4.124;2022-08-18T10:34:03;23.10;78.51
19536;HTU21D;9913;51.168;4.124;2022-08-18T10:36:55;23.91;76.68
19536;HTU21D;9913;51.168;4.124;2022-08-18T10:39:43;24.84;75.08
19536;HTU21D;9913;51.168;4.124;2022-08-18T10:42:23;24.93;75.20
19536;HTU21D;9913;51.168;4.124;2022-08-18T10:45:05;25.00;75.89
19536;HTU21D;9913;51.168;4.124;2022-08-18T10:47:35;25.68;74.68
19536;HTU21D;9913;51.168;4.124;2022-08-18T10:50:18;26.05;72.00
19536;HTU21D;9913;51.168;4.124;2022-08-18T10:53:09;25.28;72.46
19536;HTU21D;9913;51.168;4.124;2022-08-18T10:56:03;24.30;74.67
19536;HTU21D;9913;51.168;4.124;2022-08-18T10:58:47;23.84;74.92
19536;HTU21D;9913;51.168;4.124;2022-08-18T11:01:41;23.17;74.32
19536;HTU21D;9913;51.168;4.124;2022-08-18T11:04:25;22.86;75.28
19536;HTU21D;9913;51.168;4.124;2022-08-18T11:07:19;23.01;75.05
19536;HTU21D;9913;51.168;4.124;2022-08-18T11:09:52;22.97;75.99
19536;HTU21D;9913;51.168;4.124;2022-08-18T11:12:55;23.16;74.87
19536;HTU21D;9913;51.168;4.124;2022-08-18T11:15:44;23.98;74.35
19536;HTU21D;9913;51.168;4.124;2022-08-18T11:18:29;24.97;72.43
19536;HTU21D;9913;51.168;4.124;2022-08-18T11:21:29;25.93;71.79
19536;HTU21D;9913;51.168;4.124;2022-08-18T11:24:03;26.02;74.97
19536;HTU21D;9913;51.168;4.124;2022-08-18T11:26:58;26.31;71.20
19536;HTU21D;9913;51.168;4.124;2022-08-18T11:29:31;26.34;70.48
19536;HTU21D;9913;51.168;4.124;2022-08-18T11:32:06;25.86;69.41
19536;HTU21D;9913;51.168;4.124;2022-08-18T11:34:40;25.91;68.67
19536;HTU21D;9913;51.168;4.124;2022-08-18T11:37:23;26.24;72.95
19536;HTU21D;9913;51.168;4.124;2022-08-18T11:39:56;26.01;70.33
19536;HTU21D;9913;51.168;4.124;2022-08-18T11:42:29;25.63;70.60
19536;HTU21D;9913;51.168;4.124;2022-08-18T11:45:05;25.24;70.50
19536;HTU21D;9913;51.168;4.124;2022-08-18T11:47:36;25.29;71.22
19536;HTU21D;9913;51.168;4.124;2022-08-18T11:50:11;24.79;70.57
19536;HTU21D;9913;51.168;4.124;2022-08-18T11:52:49;25.15;70.96
19536;HTU21D;9913;51.168;4.124;2022-08-18T11:55:40;25.07;69.87
19536;HTU21D;9913;51.168;4.124;2022-08-18T11:58:41;25.10;71.35
19536;HTU21D;9913;51.168;4.124;2022-08-18T12:01:31;24.85;70.10
19536;HTU21D;9913;51.168;4.124;2022-08-18T12:04:14;24.45;71.59
19536;HTU21D;9913;51.168;4.124;2022-08-18T12:07:02;24.47;71.16
19536;HTU21D;9913;51.168;4.124;2022-08-18T12:09:35;24.59;71.38
19536;HTU21D;9913;51.168;4.124;2022-08-18T12:12:26;24.83;70.16
19536;HTU21D;9913;51.168;4.124;2022-08-18T12:15:27;25.23;71.75
19536;HTU21D;9913;51.168;4.124;2022-08-18T12:18:10;25.65;70.45
19536;HTU21D;9913;51.168;4.124;2022-08-18T12:20:55;26.08;68.64
19536;HTU21D;9913;51.168;4.124;2022-08-18T12:23:25;26.51;68.29
19536;HTU21D;9913;51.168;4.124;2022-08-18T12:26:07;25.93;72.69
19536;HTU21D;9913;51.168;4.124;2022-08-18T12:28:59;26.24;68.90
19536;HTU21D;9913;51.168;4.124;2022-08-18T12:31:32;25.83;68.42
19536;HTU21D;9913;51.168;4.124;2022-08-18T12:34:15;25.80;68.69
19536;HTU21D;9913;51.168;4.124;2022-08-18T12:36:55;25.59;69.63
19536;HTU21D;9913;51.168;4.124;2022-08-18T12:39:28;25.56;69.16
19536;HTU21D;9913;51.168;4.124;2022-08-18T12:41:59;25.77;69.71
19536;HTU21D;9913;51.168;4.124;2022-08-18T12:44:29;26.08;70.90
19536;HTU21D;9913;51.168;4.124;2022-08-18T12:47:01;26.84;69.49
19536;HTU21D;9913;51.168;4.124;2022-08-18T12:49:32;27.29;69.71
19536;HTU21D;9913;51.168;4.124;2022-08-18T12:52:03;26.69;68.76
19536;HTU21D;9913;51.168;4.124;2022-08-18T12:54:32;26.48;70.20
19536;HTU21D;9913;51.168;4.124;2022-08-18T12:57:13;25.95;68.07
19536;HTU21D;9913;51.168;4.124;2022-08-18T13:00:05;25.75;69.46
19536;HTU21D;9913;51.168;4.124;2022-08-18T13:02:43;25.30;67.44
19536;HTU21D;9913;51.168;4.124;2022-08-18T13:05:12;25.15;68.81
19536;HTU21D;9913;51.168;4.124;2022-08-18T13:07:40;24.89;69.61
19536;HTU21D;9913;51.168;4.124;2022-08-18T13:10:16;24.79;69.75
19536;HTU21D;9913;51.168;4.124;2022-08-18T13:13:04;24.90;70.29
19536;HTU21D;9913;51.168;4.124;2022-08-18T13:15:35;24.76;69.90
19536;HTU21D;9913;51.168;4.124;2022-08-18T13:18:05;24.70;70.63
19536;HTU21D;9913;51.168;4.124;2022-08-18T13:20:40;24.59;69.10
19536;HTU21D;9913;51.168;4.124;2022-08-18T13:23:11;24.75;70.47
19536;HTU21D;9913;51.168;4.124;2022-08-18T13:25:44;24.79;69.81
19536;HTU21D;9913;51.168;4.124;2022-08-18T13:28:16;25.08;70.68
19536;HTU21D;9913;51.168;4.124;2022-08-18T13:30:45;25.01;70.48
19536;HTU21D;9913;51.168;4.124;2022-08-18T13:33:18;25.23;69.24
19536;HTU21D;9913;51.168;4.124;2022-08-18T13:36:07;25.20;70.89
19536;HTU21D;9913;51.168;4.124;2022-08-18T13:38:36;25.30;70.48
19536;HTU21D;9913;51.168;4.124;2022-08-18T13:41:05;25.23;71.42
19536;HTU21D;9913;51.168;4.124;2022-08-18T13:43:42;25.27;69.38
19536;HTU21D;9913;51.168;4.124;2022-08-18T13:46:16;25.33;70.26
19536;HTU21D;9913;51.168;4.124;2022-08-18T13:48:59;25.79;69.22
19536;HTU21D;9913;51.168;4.124;2022-08-18T13:51:30;25.93;69.24
19536;HTU21D;9913;51.168;4.124;2022-08-18T13:54:01;26.05;69.70
19536;HTU21D;9913;51.168;4.124;2022-08-18T13:56:50;26.21;66.75
19536;HTU21D;9913;51.168;4.124;2022-08-18T13:59:19;25.97;67.94
19536;HTU21D;9913;51.168;4.124;2022-08-18T14:01:51;26.97;68.54
19536;HTU21D;9913;51.168;4.124;2022-08-18T14:04:22;26.46;69.16
19536;HTU21D;9913;51.168;4.124;2022-08-18T14:06:56;27.32;68.42
19536;HTU21D;9913;51.168;4.124;2022-08-18T14:09:33;28.43;66.86
19536;HTU21D;9913;51.168;4.124;2022-08-18T14:12:06;28.84;66.48
19536;HTU21D;9913;51.168;4.124;2022-08-18T14:14:53;30.34;93.42
19536;HTU21D;9913;51.168;4.124;2022-08-18T14:17:25;30.22;98.86
19536;HTU21D;9913;51.168;4.124;2022-08-18T14:19:55;30.93;95.59
19536;HTU21D;9913;51.168;4.124;2022-08-18T14:22:55;31.14;94.19
19536;HTU21D;9913;51.168;4.124;2022-08-18T14:25:51;30.27;91.13
19536;HTU21D;9913;51.168;4.124;2022-08-18T14:28:37;29.29;93.75
19536;HTU21D;9913;51.168;4.124;2022-08-18T14:31:09;30.27;91.98
19536;HTU21D;9913;51.168;4.124;2022-08-18T14:33:46;30.04;91.21
19536;HTU21D;9913;51.168;4.124;2022-08-18T14:36:22;29.98;93.24
19536;HTU21D;9913;51.168;4.124;2022-08-18T14:38:56;30.52;91.27
19536;HTU21D;9913;51.168;4.124;2022-08-18T14:41:25;30.90;89.70
19536;HTU21D;9913;51.168;4.124;2022-08-18T14:43:54;30.38;93.98
19536;HTU21D;9913;51.168;4.124;2022-08-18T14:46:40;30.60;89.65
19536;HTU21D;9913;51.168;4.124;2022-08-18T14:49:20;31.65;84.18
19536;HTU21D;9913;51.168;4.124;2022-08-18T14:51:57;31.96;84.32
19536;HTU21D;9913;51.168;4.124;2022-08-18T14:54:28;31.74;82.46
19536;HTU21D;9913;51.168;4.124;2022-08-18T14:56:57;32.05;83.38
19536;HTU21D;9913;51.168;4.124;2022-08-18T14:59:27;32.15;84.77
19536;HTU21D;9913;51.168;4.124;2022-08-18T15:02:04;32.25;80.55
19536;HTU21D;9913;51.168;4.124;2022-08-18T15:04:41;32.38;78.18
19536;HTU21D;9913;51.168;4.124;2022-08-18T15:07:25;32.04;82.02
19536;HTU21D;9913;51.168;4.124;2022-08-18T15:10:01;32.08;80.52
19536;HTU21D;9913;51.168;4.124;2022-08-18T15:12:43;32.13;83.80
19536;HTU21D;9913;51.168;4.124;2022-08-18T15:15:12;32.33;75.31
19536;HTU21D;9913;51.168;4.124;2022-08-18T15:17:44;32.48;79.05
19536;HTU21D;9913;51.168;4.124;2022-08-18T15:20:20;33.17;75.60
19536;HTU21D;9913;51.168;4.124;2022-08-18T15:23:00;32.35;78.88
19536;HTU21D;9913;51.168;4.124;2022-08-18T15:25:57;32.88;80.62
19536;HTU21D;9913;51.168;4.124;2022-08-18T15:28:26;32.99;75.75
19536;HTU21D;9913;51.168;4.124;2022-08-18T15:30:55;33.13;72.87
19536;HTU21D;9913;51.168;4.124;2022-08-18T15:33:47;32.72;76.98
19536;HTU21D;9913;51.168;4.124;2022-08-18T15:36:20;33.26;74.82
19536;HTU21D;9913;51.168;4.124;2022-08-18T15:38:57;32.55;72.33
19536;HTU21D;9913;51.168;4.124;2022-08-18T15:41:28;33.08;77.83
19536;HTU21D;9913;51.168;4.124;2022-08-18T15:43:59;32.89;74.37
19536;HTU21D;9913;51.168;4.124;2022-08-18T15:46:32;32.97;74.92
19536;HTU21D;9913;51.168;4.124;2022-08-18T15:49:04;31.93;78.38
19536;HTU21D;9913;51.168;4.124;2022-08-18T15:51:39;32.53;74.41
19536;HTU21D;9913;51.168;4.124;2022-08-18T15:54:12;32.60;77.01
19536;HTU21D;9913;51.168;4.124;2022-08-18T15:56:40;32.14;75.25
19536;HTU21D;9913;51.168;4.124;2022-08-18T15:59:09;32.24;73.72
19536;HTU21D;9913;51.168;4.124;2022-08-18T16:01:38;31.99;76.79
19536;HTU21D;9913;51.168;4.124;2022-08-18T16:04:15;30.23;83.17
19536;HTU21D;9913;51.168;4.124;2022-08-18T16:06:44;28.82;86.19
19536;HTU21D;9913;51.168;4.124;2022-08-18T16:09:19;30.60;81.08
19536;HTU21D;9913;51.168;4.124;2022-08-18T16:11:48;31.97;81.21
19536;HTU21D;9913;51.168;4.124;2022-08-18T16:14:17;32.22;78.27
19536;HTU21D;9913;51.168;4.124;2022-08-18T16:16:45;31.85;77.41
19536;HTU21D;9913;51.168;4.124;2022-08-18T16:19:17;32.31;79.59
19536;HTU21D;9913;51.168;4.124;2022-08-18T16:21:55;32.55;73.35
19536;HTU21D;9913;51.168;4.124;2022-08-18T16:24:25;32.40;74.84
19536;HTU21D;9913;51.168;4.124;2022-08-18T16:26:53;32.96;72.25
19536;HTU21D;9913;51.168;4.124;2022-08-18T16:29:22;32.58;75.57
19536;HTU21D;9913;51.168;4.124;2022-08-18T16:31:55;32.16;75.95
19536;HTU21D;9913;51.168;4.124;2022-08-18T16:34:26;33.04;70.80
19536;HTU21D;9913;51.168;4.124;2022-08-18T16:36:57;33.50;70.97
19536;HTU21D;9913;51.168;4.124;2022-08-18T16:39:30;33.63;70.85
19536;HTU21D;9913;51.168;4.124;2022-08-18T16:42:02;33.25;68.92
19536;HTU21D;9913;51.168;4.124;2022-08-18T16:44:33;32.02;71.85